Time;durP1;ratioP1;P1;durP2;ratioP2;P2;SDS_P1;SDS_P2;PMS_P1;PMS_P2;Temp;Humidity;BMP_temperature;BMP_pressure;BME280_temperature;BME280_humidity;BME280_pressure;Samples;Min_cycle;Max_cycle;Signal;HPM_P1;HPM_P2
2021/12/22 00:00:10;;;;;;;20.03;9.13;;;11.20;47.70;;;;;;5061574;28;20439;-81
2021/12/22 00:02:45;;;;;;;24.90;9.47;;;11.10;47.70;;;;;;5061806;28;20466;-81
2021/12/22 00:05:17;;;;;;;18.63;9.23;;;11.10;47.70;;;;;;5061256;28;20461;-81
2021/12/22 00:07:46;;;;;;;19.60;9.67;;;11.10;47.70;;;;;;5044593;28;20489;-81
2021/12/22 00:10:14;;;;;;;15.57;9.33;;;11.10;47.70;;;;;;5061449;28;20450;-82
2021/12/22 00:12:42;;;;;;;19.03;9.87;;;11.10;47.70;;;;;;5061461;28;20467;-82
2021/12/22 00:15:11;;;;;;;19.63;9.43;;;11.10;47.60;;;;;;5061617;28;20538;-82
2021/12/22 00:17:39;;;;;;;17.90;9.03;;;11.10;47.60;;;;;;5061524;28;20505;-82
2021/12/22 00:20:08;;;;;;;15.70;9.00;;;11.10;47.60;;;;;;5061172;28;20525;-81
2021/12/22 00:22:37;;;;;;;19.33;9.90;;;11.10;47.70;;;;;;5061299;28;20435;-81
2021/12/22 00:25:05;;;;;;;17.93;9.37;;;11.10;47.60;;;;;;5052543;28;20497;-81
2021/12/22 00:27:33;;;;;;;20.10;9.70;;;11.00;47.70;;;;;;5060905;28;20434;-81
2021/12/22 00:30:02;;;;;;;17.77;9.50;;;11.00;47.50;;;;;;5060979;28;20511;-81
2021/12/22 00:32:32;;;;;;;15.70;9.20;;;11.00;47.70;;;;;;5060825;28;20450;-81
2021/12/22 00:35:00;;;;;;;17.83;9.33;;;10.90;47.70;;;;;;5060913;28;20472;-82
2021/12/22 00:37:29;;;;;;;20.13;9.33;;;10.90;47.80;;;;;;5060381;28;20506;-82
2021/12/22 00:39:58;;;;;;;15.20;8.83;;;10.90;48.40;;;;;;5060075;28;20513;-82
2021/12/22 00:42:27;;;;;;;20.77;10.30;;;10.90;47.70;;;;;;5057376;28;20427;-81
2021/12/22 00:44:55;;;;;;;19.37;9.40;;;10.90;47.70;;;;;;5058950;28;20509;-82
2021/12/22 00:47:24;;;;;;;21.10;9.70;;;10.90;47.70;;;;;;5061672;28;20477;-81
2021/12/22 00:49:52;;;;;;;22.03;10.57;;;10.90;47.80;;;;;;5060736;28;20450;-82
2021/12/22 00:52:20;;;;;;;17.03;9.70;;;10.90;47.70;;;;;;5060813;28;20569;-82
2021/12/22 00:54:48;;;;;;;16.20;8.80;;;10.90;47.70;;;;;;5060867;28;20545;-82
2021/12/22 00:57:17;;;;;;;17.27;8.80;;;10.90;47.80;;;;;;5060796;28;20477;-84
2021/12/22 00:59:46;;;;;;;18.90;9.90;;;10.90;47.50;;;;;;5060869;28;20442;-82
2021/12/22 01:02:16;;;;;;;18.20;9.37;;;10.90;47.80;;;;;;5040955;28;20603;-81
2021/12/22 01:04:44;;;;;;;18.30;9.73;;;10.90;47.80;;;;;;5020501;28;20551;-81
2021/12/22 01:07:13;;;;;;;16.83;8.97;;;10.90;47.80;;;;;;5020563;28;20445;-81
2021/12/22 01:09:41;;;;;;;18.67;9.63;;;10.80;47.80;;;;;;5017187;28;20460;-81
2021/12/22 01:12:09;;;;;;;16.87;9.70;;;10.80;47.90;;;;;;5020473;28;20535;-81
2021/12/22 01:14:39;;;;;;;17.20;9.37;;;10.90;48.00;;;;;;5020934;28;20480;-81
2021/12/22 01:17:10;;;;;;;17.40;8.63;;;10.80;47.60;;;;;;5020186;28;20456;-81
2021/12/22 01:19:45;;;;;;;17.07;9.33;;;10.80;47.70;;;;;;5020769;28;20471;-81
2021/12/22 01:22:23;;;;;;;13.87;8.73;;;10.80;47.70;;;;;;5030227;28;20510;-81
2021/12/22 01:25:00;;;;;;;16.50;9.07;;;10.80;47.80;;;;;;5059540;28;20454;-81
2021/12/22 01:27:34;;;;;;;18.70;9.93;;;10.80;47.90;;;;;;5059899;28;20498;-81
2021/12/22 01:30:04;;;;;;;16.83;9.17;;;10.80;48.00;;;;;;5059523;28;20530;-81
2021/12/22 01:32:31;;;;;;;17.10;9.47;;;10.80;48.00;;;;;;5059808;28;20423;-81
2021/12/22 01:35:00;;;;;;;17.53;9.27;;;10.80;47.90;;;;;;5055928;28;20466;-81
2021/12/22 01:37:28;;;;;;;17.33;8.97;;;10.80;47.80;;;;;;5021905;28;20483;-81
2021/12/22 01:39:56;;;;;;;16.17;9.23;;;10.80;47.70;;;;;;5019390;28;20500;-81
2021/12/22 01:42:24;;;;;;;20.03;9.67;;;10.80;47.80;;;;;;5017317;28;20451;-81
2021/12/22 01:45:13;;;;;;;17.97;9.63;;;10.70;47.80;;;;;;5016827;28;20457;-81
2021/12/22 01:50:34;;;;;;;17.93;9.87;;;10.80;48.00;;;;;;5017745;28;20460;-81
2021/12/22 01:53:05;;;;;;;18.70;9.60;;;10.70;47.70;;;;;;5016638;28;20547;-82
2021/12/22 01:55:37;;;;;;;19.17;10.20;;;10.70;47.80;;;;;;5016402;28;20522;-82
2021/12/22 01:58:07;;;;;;;20.53;10.40;;;10.80;47.90;;;;;;5016473;28;20564;-82
2021/12/22 02:00:35;;;;;;;20.00;9.60;;;10.70;47.70;;;;;;5016737;28;20500;-82
2021/12/22 02:03:05;;;;;;;19.03;9.93;;;10.70;47.80;;;;;;5016441;28;20452;-81
2021/12/22 02:05:33;;;;;;;26.27;11.00;;;10.70;47.90;;;;;;5017282;28;20440;-81
2021/12/22 02:08:07;;;;;;;22.60;10.10;;;10.70;47.90;;;;;;5016104;28;20440;-81
2021/12/22 02:10:38;;;;;;;19.70;10.50;;;10.70;47.90;;;;;;5015958;28;20483;-82
2021/12/22 02:13:14;;;;;;;20.13;10.67;;;10.70;48.00;;;;;;5016362;28;20448;-81
2021/12/22 02:15:43;;;;;;;22.37;10.23;;;10.70;47.70;;;;;;5016343;28;20465;-81
2021/12/22 02:18:16;;;;;;;19.50;10.03;;;10.60;47.60;;;;;;5016179;28;20480;-81
2021/12/22 02:20:46;;;;;;;19.50;9.53;;;10.60;47.80;;;;;;5015932;28;20464;-82
2021/12/22 02:23:40;;;;;;;19.70;10.27;;;10.60;47.80;;;;;;5016317;28;20532;-81
2021/12/22 02:26:37;;;;;;;18.80;10.67;;;10.60;47.90;;;;;;5016008;28;20487;-81
2021/12/22 02:29:16;;;;;;;17.83;10.17;;;10.50;47.90;;;;;;5015522;28;20559;-81
2021/12/22 02:31:48;;;;;;;20.13;8.90;;;10.50;47.90;;;;;;5016316;28;20440;-81
2021/12/22 02:34:17;;;;;;;21.37;10.43;;;10.60;47.80;;;;;;5015873;28;20459;-81
2021/12/22 02:36:46;;;;;;;20.33;10.70;;;10.50;47.80;;;;;;5016180;28;20445;-82
2021/12/22 02:39:14;;;;;;;20.60;10.73;;;10.50;47.80;;;;;;5011215;28;20480;-82
2021/12/22 02:41:42;;;;;;;21.03;10.70;;;10.50;47.70;;;;;;5016848;28;20458;-81
2021/12/22 02:44:11;;;;;;;20.43;10.10;;;10.50;47.70;;;;;;5016177;28;20487;-81
2021/12/22 02:46:40;;;;;;;20.87;10.27;;;10.50;47.80;;;;;;5016679;28;20454;-81
2021/12/22 02:49:09;;;;;;;24.23;10.73;;;10.50;47.70;;;;;;5034436;28;20540;-82
2021/12/22 02:51:37;;;;;;;20.73;10.97;;;10.50;47.80;;;;;;5036097;28;20535;-80
2021/12/22 02:54:12;;;;;;;19.67;9.80;;;10.50;47.60;;;;;;5035471;28;20469;-81
2021/12/22 02:56:52;;;;;;;19.83;10.53;;;10.50;47.60;;;;;;5024023;28;20562;-80
2021/12/22 02:59:43;;;;;;;19.47;10.43;;;10.40;47.70;;;;;;5049698;28;20499;-80
2021/12/22 03:02:22;;;;;;;22.90;10.80;;;10.50;47.80;;;;;;5035597;28;20443;-81
2021/12/22 03:04:55;;;;;;;22.80;11.67;;;10.40;47.60;;;;;;5036383;28;20459;-80
2021/12/22 03:07:25;;;;;;;22.90;10.67;;;10.40;47.70;;;;;;5045564;28;20439;-80
2021/12/22 03:10:00;;;;;;;20.43;9.73;;;10.40;47.50;;;;;;5026828;28;20496;-80
2021/12/22 03:12:32;;;;;;;21.37;11.37;;;10.40;47.60;;;;;;5046867;28;20427;-80
2021/12/22 03:15:00;;;;;;;21.00;11.13;;;10.40;47.70;;;;;;5043573;28;20538;-80
2021/12/22 03:17:28;;;;;;;19.87;10.80;;;10.30;47.60;;;;;;5045444;28;20478;-80
2021/12/22 03:19:56;;;;;;;20.33;10.33;;;10.40;47.60;;;;;;5045539;28;20430;-81
2021/12/22 03:22:24;;;;;;;19.37;11.33;;;10.30;47.60;;;;;;5044582;28;20483;-80
2021/12/22 03:24:52;;;;;;;21.87;10.50;;;10.30;47.50;;;;;;5053962;28;20482;-81
2021/12/22 03:27:22;;;;;;;20.90;10.33;;;10.30;47.50;;;;;;5064973;28;20439;-80
2021/12/22 03:29:50;;;;;;;18.57;10.67;;;10.30;47.60;;;;;;5064513;28;20470;-80
2021/12/22 03:32:18;;;;;;;22.00;11.00;;;10.30;47.50;;;;;;5064626;28;20901;-80
2021/12/22 03:34:46;;;;;;;24.13;11.33;;;10.30;47.60;;;;;;5064154;28;20486;-80
2021/12/22 03:37:14;;;;;;;21.03;10.80;;;10.30;47.50;;;;;;5064082;28;20449;-80
2021/12/22 03:39:42;;;;;;;24.93;11.23;;;10.20;47.40;;;;;;5053117;28;20499;-81
2021/12/22 03:42:10;;;;;;;23.33;11.33;;;10.20;47.40;;;;;;5050649;28;20438;-80
2021/12/22 03:44:40;;;;;;;18.80;9.60;;;10.30;47.60;;;;;;5064943;28;20493;-80
2021/12/22 03:47:08;;;;;;;20.33;10.10;;;10.30;47.50;;;;;;5064011;28;20477;-80
2021/12/22 03:49:36;;;;;;;24.07;11.53;;;10.30;47.40;;;;;;5063945;28;20497;-80
2021/12/22 03:52:05;;;;;;;21.57;11.27;;;10.20;47.40;;;;;;5063485;28;20423;-80
2021/12/22 03:54:33;;;;;;;21.80;11.10;;;10.20;47.40;;;;;;5063807;28;20462;-80
2021/12/22 03:57:01;;;;;;;21.50;11.40;;;10.20;47.30;;;;;;5049775;28;20497;-80
2021/12/22 03:59:28;;;;;;;21.30;10.20;;;10.20;47.80;;;;;;5064190;28;20477;-80
2021/12/22 04:01:58;;;;;;;24.23;11.40;;;10.20;47.40;;;;;;5064221;28;20518;-80
2021/12/22 04:04:26;;;;;;;25.57;12.00;;;10.20;47.50;;;;;;5064173;28;20493;-80
2021/12/22 04:06:54;;;;;;;22.17;11.20;;;10.20;47.60;;;;;;5063240;28;20461;-81
2021/12/22 04:09:27;;;;;;;19.07;10.07;;;10.20;47.40;;;;;;5063116;28;20538;-81
2021/12/22 04:11:55;;;;;;;26.90;11.13;;;10.20;47.40;;;;;;5061536;28;20407;-80
2021/12/22 04:14:23;;;;;;;23.63;11.47;;;10.20;47.30;;;;;;5057737;28;20450;-80
2021/12/22 04:16:51;;;;;;;23.70;11.17;;;10.20;47.50;;;;;;5062474;28;20450;-80
2021/12/22 04:19:20;;;;;;;24.03;11.37;;;10.20;47.60;;;;;;5064601;28;20434;-80
2021/12/22 04:21:49;;;;;;;19.53;10.90;;;10.20;47.30;;;;;;5064669;28;20427;-80
2021/12/22 04:24:17;;;;;;;22.77;10.83;;;10.10;47.30;;;;;;5063582;28;20474;-80
2021/12/22 04:26:46;;;;;;;20.53;10.57;;;10.10;47.30;;;;;;5061492;28;20533;-80
2021/12/22 04:29:14;;;;;;;20.67;10.73;;;10.10;47.40;;;;;;5050488;28;20577;-81
2021/12/22 04:31:42;;;;;;;16.77;9.43;;;10.10;47.50;;;;;;5054918;28;20506;-80
2021/12/22 04:34:10;;;;;;;25.30;11.67;;;10.10;47.30;;;;;;5058704;28;20482;-79
2021/12/22 04:36:40;;;;;;;23.20;11.00;;;10.10;47.40;;;;;;5061053;28;20453;-80
2021/12/22 04:39:09;;;;;;;22.30;11.13;;;10.10;47.30;;;;;;5058909;28;20566;-80
2021/12/22 04:41:37;;;;;;;24.33;10.60;;;10.10;47.30;;;;;;5057504;28;20541;-80
2021/12/22 04:44:05;;;;;;;24.00;11.30;;;10.10;47.30;;;;;;5057336;28;20470;-80
2021/12/22 04:46:34;;;;;;;22.53;11.10;;;10.10;47.30;;;;;;5057434;28;20434;-80
2021/12/22 04:49:04;;;;;;;24.03;12.00;;;10.10;47.40;;;;;;5023177;28;20859;-81
2021/12/22 04:51:33;;;;;;;26.33;11.37;;;10.00;47.90;;;;;;5017805;28;20471;-80
2021/12/22 04:54:06;;;;;;;21.43;11.43;;;10.00;47.50;;;;;;5012825;28;20475;-80
2021/12/22 04:56:39;;;;;;;21.67;10.87;;;10.00;47.30;;;;;;5017785;28;20479;-80
2021/12/22 04:59:07;;;;;;;22.83;11.77;;;10.00;47.60;;;;;;5019324;28;20424;-81
2021/12/22 05:01:34;;;;;;;21.60;10.67;;;9.90;48.40;;;;;;5017696;28;20488;-82
2021/12/22 05:04:03;;;;;;;21.07;10.43;;;9.90;48.50;;;;;;5024170;28;20487;-81
2021/12/22 05:06:31;;;;;;;22.90;11.00;;;9.90;48.50;;;;;;5045037;28;20463;-81
2021/12/22 05:08:59;;;;;;;22.93;10.90;;;10.00;47.70;;;;;;5044529;28;20546;-81
2021/12/22 05:11:29;;;;;;;23.17;11.17;;;10.00;47.70;;;;;;5032220;28;20478;-82
2021/12/22 05:13:57;;;;;;;23.20;10.67;;;10.00;47.60;;;;;;5016675;28;20459;-81
2021/12/22 05:16:25;;;;;;;22.70;10.90;;;10.00;47.60;;;;;;5031562;28;20447;-81
2021/12/22 05:18:57;;;;;;;22.17;11.30;;;9.90;48.40;;;;;;5036884;28;20486;-82
2021/12/22 05:21:26;;;;;;;23.00;11.33;;;9.90;48.50;;;;;;5042460;28;20522;-81
2021/12/22 05:23:55;;;;;;;20.20;10.70;;;9.90;48.40;;;;;;5042078;28;20520;-81
2021/12/22 05:26:23;;;;;;;21.10;10.73;;;9.90;48.40;;;;;;5056816;28;20510;-81
2021/12/22 05:28:54;;;;;;;23.20;12.10;;;9.90;48.40;;;;;;5056249;28;20489;-81
2021/12/22 05:31:22;;;;;;;25.93;11.40;;;9.90;48.50;;;;;;5045392;28;20495;-81
2021/12/22 05:33:50;;;;;;;22.30;10.70;;;9.90;48.40;;;;;;5036503;28;20547;-81
2021/12/22 05:36:18;;;;;;;18.90;10.63;;;9.90;48.40;;;;;;5026145;28;20524;-83
2021/12/22 05:38:45;;;;;;;22.27;11.60;;;9.90;48.40;;;;;;5032419;28;20523;-83
2021/12/22 05:41:13;;;;;;;27.50;11.97;;;9.90;48.20;;;;;;5028266;28;20485;-83
2021/12/22 05:43:41;;;;;;;24.53;11.67;;;9.90;48.40;;;;;;5019538;28;20480;-83
2021/12/22 05:46:10;;;;;;;22.60;11.13;;;9.90;48.30;;;;;;5021217;28;20560;-83
2021/12/22 05:48:38;;;;;;;22.00;12.00;;;9.80;48.20;;;;;;5026954;28;20432;-84
2021/12/22 05:51:07;;;;;;;25.83;10.70;;;9.80;48.20;;;;;;5035651;28;20529;-84
2021/12/22 05:53:35;;;;;;;26.50;12.93;;;9.80;48.30;;;;;;5032819;28;20452;-84
2021/12/22 05:56:03;;;;;;;23.47;10.90;;;9.80;48.30;;;;;;5026866;28;20542;-84
2021/12/22 05:58:32;;;;;;;24.10;11.33;;;9.80;48.20;;;;;;5020200;28;20451;-82
2021/12/22 06:00:59;;;;;;;23.70;11.37;;;9.80;48.20;;;;;;5019756;28;20437;-82
2021/12/22 06:03:29;;;;;;;23.10;11.33;;;9.80;48.20;;;;;;5031376;28;20482;-82
2021/12/22 06:05:56;;;;;;;23.43;11.63;;;9.80;48.20;;;;;;5031823;28;20462;-82
2021/12/22 06:08:25;;;;;;;26.30;11.40;;;9.70;48.10;;;;;;5032142;28;20449;-82
2021/12/22 06:10:52;;;;;;;24.10;10.77;;;9.70;48.70;;;;;;5018784;28;20520;-82
2021/12/22 06:13:20;;;;;;;22.60;11.30;;;9.80;49.50;;;;;;5032517;28;20503;-83
2021/12/22 06:15:48;;;;;;;23.13;11.60;;;9.90;49.90;;;;;;5035584;28;20467;-82
2021/12/22 06:18:17;;;;;;;27.27;11.63;;;9.90;49.80;;;;;;5025103;28;20495;-82
2021/12/22 06:20:46;;;;;;;22.67;10.93;;;9.90;49.70;;;;;;5030612;28;20437;-82
2021/12/22 06:23:14;;;;;;;22.20;11.90;;;9.90;49.50;;;;;;5030455;28;20463;-82
2021/12/22 06:25:42;;;;;;;26.00;11.77;;;9.80;49.30;;;;;;5030435;28;20427;-82
2021/12/22 06:28:10;;;;;;;25.80;12.30;;;9.80;49.10;;;;;;5028365;28;20528;-82
2021/12/22 06:30:38;;;;;;;26.07;12.00;;;9.80;49.10;;;;;;5027997;28;20476;-82
2021/12/22 06:33:07;;;;;;;21.10;10.87;;;9.80;48.90;;;;;;5030042;28;20443;-82
2021/12/22 06:35:34;;;;;;;22.23;10.83;;;9.70;48.80;;;;;;5029077;28;20950;-82
2021/12/22 06:38:04;;;;;;;24.17;11.00;;;9.70;49.40;;;;;;5027109;28;20456;-82
2021/12/22 06:40:32;;;;;;;23.20;11.70;;;9.70;48.60;;;;;;5031452;28;20458;-82
2021/12/22 06:43:00;;;;;;;22.97;10.93;;;9.70;48.60;;;;;;5033754;28;20474;-82
2021/12/22 06:45:29;;;;;;;25.17;11.97;;;9.70;48.40;;;;;;5031422;28;20447;-82
2021/12/22 06:47:56;;;;;;;24.30;12.03;;;9.70;48.50;;;;;;5033285;28;21002;-82
2021/12/22 06:50:25;;;;;;;24.30;12.20;;;9.70;48.60;;;;;;5029818;28;20467;-82
2021/12/22 06:52:53;;;;;;;25.53;11.00;;;9.70;48.30;;;;;;5032449;28;20487;-82
2021/12/22 06:55:22;;;;;;;21.87;10.87;;;9.70;48.20;;;;;;5031858;28;20549;-82
2021/12/22 06:57:54;;;;;;;23.20;11.93;;;9.70;48.30;;;;;;5031307;28;20433;-82
2021/12/22 07:00:21;;;;;;;24.23;11.97;;;9.70;48.30;;;;;;5030113;28;20961;-82
2021/12/22 07:02:50;;;;;;;21.90;11.30;;;9.60;48.20;;;;;;5030806;28;20484;-82
2021/12/22 07:05:18;;;;;;;25.37;11.70;;;9.60;48.40;;;;;;5033378;28;20553;-81
2021/12/22 07:07:46;;;;;;;21.63;12.13;;;9.70;48.40;;;;;;5028710;28;20455;-82
2021/12/22 07:10:14;;;;;;;25.63;11.40;;;9.60;48.30;;;;;;5032241;28;20454;-82
2021/12/22 07:12:45;;;;;;;27.53;12.03;;;9.60;48.30;;;;;;5030855;28;20468;-82
2021/12/22 07:15:14;;;;;;;21.70;10.90;;;9.60;48.20;;;;;;5031448;28;20490;-82
2021/12/22 07:17:43;;;;;;;24.33;11.00;;;9.60;48.30;;;;;;5032230;28;20519;-81
2021/12/22 07:20:11;;;;;;;22.50;11.20;;;9.60;48.20;;;;;;5032414;28;20460;-82
2021/12/22 07:22:39;;;;;;;23.47;11.93;;;9.60;48.20;;;;;;5035804;28;20476;-82
2021/12/22 07:25:08;;;;;;;25.50;12.47;;;9.60;48.20;;;;;;5029369;28;20491;-82
2021/12/22 07:27:36;;;;;;;25.07;11.30;;;9.60;48.30;;;;;;5029206;28;20544;-82
2021/12/22 07:30:07;;;;;;;21.97;11.47;;;9.60;48.20;;;;;;5031344;28;20436;-82
2021/12/22 07:32:35;;;;;;;24.20;11.87;;;9.60;48.00;;;;;;5029987;28;20552;-81
2021/12/22 07:35:06;;;;;;;25.33;11.63;;;9.60;48.10;;;;;;5027301;28;20451;-80
2021/12/22 07:37:39;;;;;;;21.80;11.80;;;9.60;48.00;;;;;;5029720;28;20451;-80
2021/12/22 07:40:08;;;;;;;28.13;11.93;;;9.60;48.00;;;;;;5026654;28;20463;-83
2021/12/22 07:42:35;;;;;;;26.60;11.67;;;9.60;47.90;;;;;;5030356;28;20496;-80
2021/12/22 07:45:05;;;;;;;21.70;11.70;;;9.60;47.90;;;;;;5031283;28;20460;-80
2021/12/22 07:47:33;;;;;;;26.53;11.70;;;9.60;48.00;;;;;;5030719;28;20428;-81
2021/12/22 07:50:01;;;;;;;19.63;11.23;;;9.60;47.90;;;;;;5029929;28;20454;-81
2021/12/22 07:52:30;;;;;;;22.00;11.00;;;9.60;47.90;;;;;;5030989;28;20490;-81
2021/12/22 07:54:57;;;;;;;24.67;11.57;;;9.60;48.00;;;;;;5029944;28;20485;-81
2021/12/22 07:57:26;;;;;;;25.33;12.63;;;9.60;47.90;;;;;;5060298;28;20457;-81
2021/12/22 07:59:54;;;;;;;23.43;12.07;;;9.60;47.90;;;;;;5060697;28;20473;-81
2021/12/22 08:02:23;;;;;;;24.47;11.07;;;9.60;47.90;;;;;;5061294;28;20455;-81
2021/12/22 08:04:51;;;;;;;24.13;11.67;;;9.60;48.00;;;;;;5060209;28;20459;-81
2021/12/22 08:07:19;;;;;;;23.03;11.83;;;9.60;47.90;;;;;;5055096;28;20464;-81
2021/12/22 08:09:47;;;;;;;21.10;11.03;;;9.60;47.80;;;;;;5030317;28;20464;-81
2021/12/22 08:12:15;;;;;;;21.17;11.30;;;9.60;47.80;;;;;;5026244;28;20508;-81
2021/12/22 08:14:43;;;;;;;22.90;11.50;;;9.60;47.90;;;;;;5042596;28;20449;-81
2021/12/22 08:17:13;;;;;;;23.70;11.80;;;9.60;47.70;;;;;;5034249;28;20439;-81
2021/12/22 08:19:43;;;;;;;23.70;11.40;;;9.60;47.70;;;;;;5028123;28;20456;-81
2021/12/22 08:22:11;;;;;;;25.07;12.50;;;9.60;47.80;;;;;;5031329;28;20467;-81
2021/12/22 08:24:39;;;;;;;24.87;11.97;;;9.70;47.70;;;;;;5021518;28;20483;-82
2021/12/22 08:27:07;;;;;;;25.20;12.80;;;9.70;47.70;;;;;;5021537;28;20464;-81
2021/12/22 08:29:41;;;;;;;21.53;12.10;;;9.70;47.90;;;;;;5031499;28;20482;-82
2021/12/22 08:32:10;;;;;;;25.13;12.17;;;9.70;47.70;;;;;;5044264;28;20469;-82
2021/12/22 08:34:40;;;;;;;25.53;12.27;;;9.70;47.70;;;;;;5059567;28;20460;-82
2021/12/22 08:39:56;;;;;;;23.23;12.53;;;9.80;47.60;;;;;;5060062;28;20517;-82
2021/12/22 08:42:24;;;;;;;26.00;11.70;;;9.80;47.80;;;;;;5059399;28;20513;-82
2021/12/22 08:44:52;;;;;;;22.53;11.73;;;9.90;47.90;;;;;;5058955;28;20533;-82
2021/12/22 08:47:20;;;;;;;27.90;12.70;;;9.90;48.00;;;;;;5049132;28;20470;-82
2021/12/22 08:49:48;;;;;;;25.60;12.53;;;9.90;47.90;;;;;;5060123;28;20518;-82
2021/12/22 08:52:17;;;;;;;23.90;12.00;;;10.00;47.20;;;;;;5059194;28;20477;-81
2021/12/22 08:54:45;;;;;;;24.03;12.37;;;10.10;47.20;;;;;;5059113;28;20482;-82
2021/12/22 08:57:13;;;;;;;23.50;11.43;;;10.20;47.40;;;;;;5040860;28;20435;-82
2021/12/22 08:59:41;;;;;;;23.63;12.07;;;10.20;47.40;;;;;;5030971;28;20538;-81
2021/12/22 09:02:09;;;;;;;22.63;12.27;;;10.30;47.50;;;;;;5037922;28;20510;-81
2021/12/22 09:04:37;;;;;;;25.50;12.90;;;10.40;47.60;;;;;;5035921;28;20484;-82
2021/12/22 09:07:05;;;;;;;22.87;11.70;;;10.40;48.20;;;;;;5059526;28;20526;-82
2021/12/22 09:09:34;;;;;;;24.63;12.80;;;10.40;47.60;;;;;;5059497;28;20474;-82
2021/12/22 09:12:02;;;;;;;23.57;12.43;;;10.50;47.60;;;;;;5058852;28;20470;-81
2021/12/22 09:14:30;;;;;;;29.73;12.17;;;10.50;47.70;;;;;;5058795;28;20549;-82
2021/12/22 09:16:58;;;;;;;21.90;11.93;;;10.60;47.80;;;;;;5043312;28;20438;-82
2021/12/22 09:19:26;;;;;;;27.40;13.50;;;10.60;47.80;;;;;;5038832;28;20431;-82
2021/12/22 09:21:54;;;;;;;23.10;11.87;;;10.70;48.00;;;;;;5037630;28;20518;-81
2021/12/22 09:24:22;;;;;;;22.60;12.23;;;10.70;48.00;;;;;;5051708;28;20466;-81
2021/12/22 09:26:52;;;;;;;26.40;13.37;;;10.80;48.10;;;;;;5057780;28;20541;-82
2021/12/22 09:29:19;;;;;;;24.10;12.00;;;10.80;48.10;;;;;;5059115;28;20473;-82
2021/12/22 09:31:48;;;;;;;22.53;11.87;;;10.80;48.10;;;;;;5058991;28;20458;-81
2021/12/22 09:34:15;;;;;;;21.43;12.20;;;10.90;48.20;;;;;;5059382;28;20462;-82
2021/12/22 09:36:43;;;;;;;24.07;12.80;;;10.90;48.20;;;;;;5058985;28;20482;-82
2021/12/22 09:39:11;;;;;;;25.03;12.37;;;11.00;48.30;;;;;;5053344;28;20480;-82
2021/12/22 09:41:39;;;;;;;23.23;12.73;;;11.10;48.40;;;;;;5052538;28;20462;-82
2021/12/22 09:44:08;;;;;;;27.03;12.33;;;11.10;48.20;;;;;;5058531;28;20494;-81
2021/12/22 09:46:39;;;;;;;24.07;13.13;;;11.10;48.30;;;;;;5058388;28;20949;-81
2021/12/22 09:49:20;;;;;;;27.80;12.97;;;11.20;48.40;;;;;;5058490;28;20517;-82
2021/12/22 09:54:34;;;;;;;22.90;12.77;;;11.30;48.50;;;;;;5058428;28;20511;-81
2021/12/22 09:57:02;;;;;;;23.77;12.83;;;11.40;48.60;;;;;;5048009;28;20490;-82
2021/12/22 09:59:31;;;;;;;28.60;13.10;;;11.50;48.70;;;;;;5049276;28;20521;-82
2021/12/22 10:01:59;;;;;;;23.97;12.60;;;11.60;48.80;;;;;;5058146;28;20438;-82
2021/12/22 10:04:28;;;;;;;22.00;12.53;;;11.70;48.90;;;;;;5058615;28;20458;-82
2021/12/22 10:06:56;;;;;;;24.90;12.30;;;11.80;48.90;;;;;;5057705;28;20453;-81
2021/12/22 10:09:25;;;;;;;21.83;11.40;;;11.90;48.80;;;;;;5058432;28;20521;-81
2021/12/22 10:11:53;;;;;;;23.23;11.97;;;12.00;49.00;;;;;;5058394;28;20542;-82
2021/12/22 10:14:50;;;;;;;24.20;12.87;;;12.20;49.20;;;;;;5045009;28;20470;-81
2021/12/22 10:17:32;;;;;;;20.50;12.40;;;12.40;49.20;;;;;;5057994;28;20490;-81
2021/12/22 10:20:01;;;;;;;24.13;13.03;;;12.60;49.10;;;;;;5057761;28;20507;-81
2021/12/22 10:22:33;;;;;;;23.20;12.27;;;12.70;49.20;;;;;;5058066;28;20910;-81
2021/12/22 10:25:10;;;;;;;24.03;13.27;;;12.90;49.50;;;;;;5058559;28;20447;-81
2021/12/22 10:27:40;;;;;;;24.10;12.27;;;13.00;49.50;;;;;;5058399;28;20469;-81
2021/12/22 10:30:29;;;;;;;22.10;12.83;;;13.10;49.70;;;;;;5046354;28;20535;-81
2021/12/22 10:33:21;;;;;;;21.10;12.23;;;13.20;49.80;;;;;;5056355;28;20467;-81
2021/12/22 10:35:50;;;;;;;24.53;12.53;;;13.30;49.90;;;;;;5038861;28;20462;-81
2021/12/22 10:38:20;;;;;;;22.37;12.50;;;13.40;50.20;;;;;;5058217;28;20462;-81
2021/12/22 10:40:49;;;;;;;21.27;12.23;;;13.50;50.40;;;;;;5058239;28;20996;-81
2021/12/22 10:43:19;;;;;;;23.37;12.37;;;13.50;50.40;;;;;;5054970;28;20473;-82
2021/12/22 10:45:51;;;;;;;23.30;13.70;;;13.70;50.70;;;;;;5039388;28;20490;-82
2021/12/22 10:51:12;;;;;;;23.93;12.73;;;14.00;51.00;;;;;;5050824;28;20522;-81
2021/12/22 10:53:44;;;;;;;23.27;14.00;;;14.30;51.30;;;;;;5057635;28;20569;-81
2021/12/22 10:56:22;;;;;;;25.07;12.77;;;14.50;51.30;;;;;;5057455;28;20949;-81
2021/12/22 10:58:59;;;;;;;22.20;12.40;;;14.70;51.30;;;;;;5059483;28;20462;-82
2021/12/22 11:01:30;;;;;;;23.10;12.67;;;14.90;51.30;;;;;;5060525;28;20444;-81
2021/12/22 11:04:04;;;;;;;20.50;12.40;;;15.10;51.30;;;;;;5060069;28;20450;-81
2021/12/22 11:06:33;;;;;;;20.20;12.77;;;15.20;51.40;;;;;;5058441;28;20477;-83
2021/12/22 11:09:02;;;;;;;20.67;12.80;;;15.30;51.40;;;;;;5049626;28;20443;-81
2021/12/22 11:11:33;;;;;;;20.33;12.10;;;15.50;51.60;;;;;;5058573;28;20442;-82
2021/12/22 11:14:11;;;;;;;17.83;11.03;;;15.60;51.70;;;;;;5057395;28;20482;-82
2021/12/22 11:16:58;;;;;;;19.33;11.83;;;15.70;51.70;;;;;;5057733;28;20474;-82
2021/12/22 11:19:28;;;;;;;18.27;12.50;;;15.90;52.00;;;;;;5058131;28;20434;-82
2021/12/22 11:22:07;;;;;;;23.93;12.20;;;16.10;52.00;;;;;;5057753;28;20489;-82
2021/12/22 11:24:38;;;;;;;19.87;13.07;;;16.20;51.90;;;;;;5058122;28;20485;-82
2021/12/22 11:27:07;;;;;;;20.30;11.73;;;16.40;52.00;;;;;;5047454;28;20454;-82
2021/12/22 11:29:36;;;;;;;17.20;11.67;;;16.50;51.90;;;;;;5062385;28;20423;-81
2021/12/22 11:32:06;;;;;;;17.07;11.43;;;16.50;51.70;;;;;;5062329;28;20512;-82
2021/12/22 11:34:36;;;;;;;23.13;12.80;;;16.50;51.80;;;;;;5061811;28;20502;-82
2021/12/22 11:37:05;;;;;;;21.43;12.47;;;16.40;51.90;;;;;;5062661;28;20466;-81
2021/12/22 11:39:33;;;;;;;21.67;12.03;;;16.50;51.90;;;;;;5061891;28;20462;-82
2021/12/22 11:42:03;;;;;;;19.13;11.70;;;16.50;51.90;;;;;;5050512;28;20492;-82
2021/12/22 11:44:32;;;;;;;18.57;11.63;;;16.50;52.20;;;;;;5053065;28;20486;-82
2021/12/22 11:47:01;;;;;;;20.77;12.90;;;16.60;52.10;;;;;;5062287;28;20462;-82
2021/12/22 11:49:34;;;;;;;20.10;12.90;;;16.70;52.30;;;;;;5061997;28;20473;-82
2021/12/22 11:52:02;;;;;;;20.20;12.17;;;16.90;52.20;;;;;;5061507;28;20519;-82
2021/12/22 11:54:30;;;;;;;18.60;12.47;;;17.10;52.00;;;;;;5061749;28;20485;-82
2021/12/22 11:56:59;;;;;;;17.17;11.27;;;17.30;52.20;;;;;;5061905;28;20438;-82
2021/12/22 11:59:33;;;;;;;20.60;12.40;;;17.30;51.80;;;;;;5040448;28;20446;-82
2021/12/22 12:02:24;;;;;;;18.07;11.77;;;17.40;51.40;;;;;;5061565;28;20466;-81
2021/12/22 12:04:55;;;;;;;17.80;12.10;;;17.40;51.50;;;;;;5061023;28;20451;-81
2021/12/22 12:07:48;;;;;;;19.33;13.03;;;17.40;51.40;;;;;;5061266;28;20497;-82
2021/12/22 12:10:40;;;;;;;18.67;12.23;;;17.40;51.30;;;;;;5061187;28;20458;-81
2021/12/22 12:13:17;;;;;;;21.57;13.23;;;17.40;51.50;;;;;;5061251;28;20434;-81
2021/12/22 12:22:33;;;;;;;18.30;11.83;;;17.70;51.50;;;;;;5061715;28;20476;-81
2021/12/22 12:25:06;;;;;;;16.63;11.73;;;17.90;51.20;;;;;;5053761;28;20561;-81
2021/12/22 12:27:43;;;;;;;20.07;12.10;;;17.90;51.00;;;;;;5038934;28;20448;-82
2021/12/22 12:30:16;;;;;;;21.40;12.57;;;18.20;51.20;;;;;;5033677;28;20467;-82
2021/12/22 12:33:11;;;;;;;17.63;12.27;;;18.30;50.90;;;;;;5032632;28;20503;-81
2021/12/22 12:35:53;;;;;;;16.70;11.33;;;18.40;51.30;;;;;;5026825;28;20448;-81
2021/12/22 12:38:24;;;;;;;17.17;12.30;;;18.40;50.50;;;;;;5029461;28;20508;-81
2021/12/22 12:41:15;;;;;;;20.40;13.07;;;18.40;50.40;;;;;;5030888;28;20424;-82
2021/12/22 12:43:53;;;;;;;15.40;11.20;;;18.50;50.50;;;;;;5020515;28;20536;-82
2021/12/22 12:46:29;;;;;;;17.40;11.37;;;18.60;50.50;;;;;;5028777;28;20531;-81
2021/12/22 12:49:18;;;;;;;19.93;12.10;;;18.60;50.40;;;;;;5028679;28;20462;-82
2021/12/22 12:51:55;;;;;;;17.90;11.73;;;18.60;50.30;;;;;;5031962;28;20431;-82
2021/12/22 12:54:30;;;;;;;16.30;11.20;;;18.60;50.30;;;;;;5023199;28;20510;-82
2021/12/22 12:56:59;;;;;;;18.63;11.70;;;18.60;50.10;;;;;;5027594;28;20461;-83
2021/12/22 12:59:44;;;;;;;18.67;12.30;;;18.60;49.90;;;;;;5035610;28;20423;-83
2021/12/22 13:02:19;;;;;;;15.40;11.50;;;18.60;49.90;;;;;;5040377;28;20455;-84
2021/12/22 13:04:47;;;;;;;17.40;11.50;;;18.50;49.80;;;;;;5037965;28;20501;-85